Time;durP1;ratioP1;P1;durP2;ratioP2;P2;SDS_P1;SDS_P2;PMS_P1;PMS_P2;Temp;Humidity;BMP_temperature;BMP_pressure;BME280_temperature;BME280_humidity;BME280_pressure;Samples;Min_cycle;Max_cycle;Signal;HPM_P1;HPM_P2
2021/07/02 00:01:56;;;;;;;;;1.00;1.00;;;;;18.33;72.86;99231.72;3510024;40;13209;-67
2021/07/02 00:04:23;;;;;;;;;0.50;0.50;;;;;18.94;69.51;99236.34;3505818;40;13842;-66
2021/07/02 00:06:51;;;;;;;;;0.25;0.00;;;;;18.94;69.02;99230.88;3514926;40;13406;-65
2021/07/02 00:09:18;;;;;;;;;0.00;0.00;;;;;19.24;67.58;99225.97;3508146;40;13402;-67
2021/07/02 00:11:45;;;;;;;;;0.00;0.00;;;;;19.35;67.49;99224.84;3495016;41;13018;-66
2021/07/02 00:14:13;;;;;;;;;2.00;2.00;;;;;18.92;70.33;99227.47;3504981;40;13132;-67
2021/07/02 00:16:40;;;;;;;;;0.50;0.50;;;;;18.67;70.06;99228.25;3504115;40;13266;-66
2021/07/02 00:19:08;;;;;;;;;1.00;1.00;;;;;18.90;69.39;99229.50;3495777;41;13042;-66
2021/07/02 00:21:35;;;;;;;;;2.00;2.00;;;;;18.76;69.57;99230.91;3504999;40;13378;-65
2021/07/02 00:24:03;;;;;;;;;1.00;1.00;;;;;18.85;70.09;99229.09;3497393;41;13063;-67
2021/07/02 00:26:30;;;;;;;;;1.00;1.00;;;;;18.70;70.69;99233.41;3495578;41;13211;-67
2021/07/02 00:28:58;;;;;;;;;1.00;1.00;;;;;19.10;67.59;99230.16;3504690;40;13340;-66
2021/07/02 00:31:25;;;;;;;;;2.00;2.00;;;;;19.01;68.50;99229.25;3507700;40;13509;-65
2021/07/02 00:33:52;;;;;;;;;1.00;1.00;;;;;19.15;66.22;99229.66;3504186;40;13338;-67
2021/07/02 00:36:20;;;;;;;;;1.00;1.00;;;;;19.14;65.69;99239.72;3495762;41;13140;-68
2021/07/02 00:38:47;;;;;;;;;1.00;1.00;;;;;19.07;66.44;99231.31;3504708;40;13667;-67
2021/07/02 00:41:15;;;;;;;;;0.75;0.75;;;;;19.16;66.24;99239.53;3504220;41;13149;-67
2021/07/02 00:43:54;;;;;;;;;2.00;0.75;;;;;19.17;65.30;99233.94;3511603;40;13173;-67
2021/07/02 00:46:22;;;;;;;;;0.75;0.75;;;;;19.33;65.09;99230.47;3506782;40;13039;-66
2021/07/02 00:48:50;;;;;;;;;1.00;1.00;;;;;18.91;66.50;99230.38;3504197;40;12922;-65
2021/07/02 00:51:18;;;;;;;;;0.00;0.00;;;;;18.92;65.90;99238.34;3504968;40;13061;-66
2021/07/02 00:53:47;;;;;;;;;0.00;0.00;;;;;19.23;65.08;99237.88;3497028;40;13297;-66
2021/07/02 00:56:20;;;;;;;;;1.00;1.00;;;;;19.06;65.80;99235.06;3503014;40;13793;-66
2021/07/02 00:58:47;;;;;;;;;1.00;1.00;;;;;18.65;67.70;99226.56;3511969;40;13327;-67
2021/07/02 01:01:16;;;;;;;;;0.00;0.00;;;;;19.04;66.60;99234.38;3508701;40;13394;-66
2021/07/02 01:03:47;;;;;;;;;1.00;1.00;;;;;18.80;67.26;99229.59;3507628;40;13423;-66
2021/07/02 01:06:16;;;;;;;;;0.00;0.00;;;;;18.86;67.09;99228.13;3495847;41;13048;-66
2021/07/02 01:08:44;;;;;;;;;0.25;0.00;;;;;18.95;66.47;99235.31;3509351;40;13198;-66
2021/07/02 01:11:14;;;;;;;;;1.75;1.00;;;;;18.82;66.68;99232.16;3506504;40;13203;-66
2021/07/02 01:13:41;;;;;;;;;0.50;0.50;;;;;18.99;66.41;99234.00;3497253;41;13078;-63
2021/07/02 01:16:08;;;;;;;;;0.00;0.00;;;;;18.83;66.96;99223.84;3495609;41;13328;-67
2021/07/02 01:18:39;;;;;;;;;0.00;0.00;;;;;18.91;67.75;99225.78;3495863;41;12773;-66
2021/07/02 01:21:06;;;;;;;;;0.00;0.00;;;;;19.00;66.26;99223.97;3503521;41;13862;-65
2021/07/02 01:23:34;;;;;;;;;1.00;0.50;;;;;18.97;66.20;99219.69;3495741;41;13318;-67
2021/07/02 01:26:03;;;;;;;;;0.50;0.50;;;;;18.92;66.73;99213.03;3504694;40;13321;-66
2021/07/02 01:28:30;;;;;;;;;0.50;0.50;;;;;18.94;66.73;99211.00;3495574;41;13191;-67
2021/07/02 01:30:57;;;;;;;;;0.00;0.00;;;;;18.79;67.26;99213.44;3496322;40;13340;-66
2021/07/02 01:33:25;;;;;;;;;1.25;0.00;;;;;18.53;68.94;99211.50;3511280;40;13049;-66
2021/07/02 01:35:52;;;;;;;;;1.00;0.25;;;;;18.49;68.84;99207.41;3495707;41;13204;-65
2021/07/02 01:38:20;;;;;;;;;1.00;1.00;;;;;18.58;69.33;99206.44;3495813;41;13514;-65
2021/07/02 01:40:47;;;;;;;;;2.00;1.00;;;;;18.42;68.95;99209.03;3503756;40;13723;-66
2021/07/02 01:43:14;;;;;;;;;1.00;1.00;;;;;18.36;70.22;99209.66;3504317;40;13475;-65
2021/07/02 01:45:42;;;;;;;;;1.00;1.00;;;;;18.58;69.04;99205.59;3504503;40;13922;-65
2021/07/02 01:48:10;;;;;;;;;2.25;0.25;;;;;18.26;70.12;99203.44;3503953;40;13305;-66
2021/07/02 01:50:37;;;;;;;;;0.00;0.00;;;;;18.48;70.14;99205.66;3495539;41;13330;-65
2021/07/02 01:53:05;;;;;;;;;1.00;1.00;;;;;18.69;69.15;99215.34;3511773;40;13439;-65
2021/07/02 01:55:32;;;;;;;;;0.50;0.50;;;;;18.48;70.13;99208.38;3496290;41;14008;-65
2021/07/02 01:57:59;;;;;;;;;1.00;1.00;;;;;18.55;69.85;99208.63;3486052;41;13204;-65
2021/07/02 02:00:28;;;;;;;;;0.75;0.75;;;;;18.50;70.12;99206.38;3503029;41;13204;-67
2021/07/02 02:02:55;;;;;;;;;0.00;0.00;;;;;18.58;70.10;99208.31;3504188;40;12928;-66
2021/07/02 02:05:22;;;;;;;;;0.00;0.00;;;;;18.37;71.66;99204.03;3495250;41;13330;-65
2021/07/02 02:07:50;;;;;;;;;1.00;1.00;;;;;18.41;71.39;99202.75;3495069;40;13056;-65
2021/07/02 02:10:17;;;;;;;;;0.00;0.00;;;;;18.31;71.74;99195.69;3504244;40;13037;-66
2021/07/02 02:12:45;;;;;;;;;1.00;1.00;;;;;18.37;71.44;99200.47;3505470;40;13071;-65
2021/07/02 02:15:13;;;;;;;;;0.00;0.00;;;;;18.30;71.77;99193.94;3496475;41;13036;-65
2021/07/02 02:17:42;;;;;;;;;1.00;1.00;;;;;18.45;71.27;99206.00;3505503;40;13212;-64
2021/07/02 02:20:11;;;;;;;;;0.75;0.75;;;;;18.12;72.98;99202.97;3496265;41;13081;-65
2021/07/02 02:22:40;;;;;;;;;1.00;1.00;;;;;18.06;73.35;99213.59;3501718;40;13434;-64
2021/07/02 02:25:09;;;;;;;;;1.00;1.00;;;;;18.16;73.07;99204.38;3505118;41;13962;-67
2021/07/02 02:27:38;;;;;;;;;1.00;1.00;;;;;18.18;72.54;99194.19;3496318;41;13513;-62
2021/07/02 02:30:08;;;;;;;;;1.00;1.00;;;;;18.03;73.64;99194.88;3487138;41;13354;-67
2021/07/02 02:32:37;;;;;;;;;1.00;1.00;;;;;17.88;73.99;99194.59;3493583;41;14083;-65
2021/07/02 02:35:06;;;;;;;;;1.75;1.00;;;;;18.03;72.78;99187.59;3496020;41;13453;-66
2021/07/02 02:37:34;;;;;;;;;1.00;1.00;;;;;17.93;73.83;99192.22;3505200;40;14116;-63
2021/07/02 02:40:05;;;;;;;;;1.00;1.00;;;;;18.25;71.93;99196.31;3504448;40;13932;-64
2021/07/02 02:42:33;;;;;;;;;0.00;0.00;;;;;18.27;72.54;99194.28;3503269;40;14326;-65
2021/07/02 02:45:01;;;;;;;;;1.25;1.00;;;;;18.06;72.75;99187.31;3496625;41;13184;-65
2021/07/02 02:47:29;;;;;;;;;1.00;0.75;;;;;18.13;71.88;99188.38;3507109;40;13516;-63
2021/07/02 02:49:56;;;;;;;;;2.00;1.00;;;;;17.98;72.83;99187.19;3503966;40;13913;-65
2021/07/02 02:52:24;;;;;;;;;1.00;1.00;;;;;17.96;73.15;99191.94;3514405;40;13921;-65
2021/07/02 02:54:51;;;;;;;;;1.00;1.00;;;;;18.02;72.21;99191.31;3501270;40;14164;-65
2021/07/02 02:57:18;;;;;;;;;1.00;1.00;;;;;18.09;72.38;99189.72;3500271;41;14001;-65
2021/07/02 02:59:46;;;;;;;;;0.00;0.00;;;;;18.14;72.32;99190.09;3505486;41;14133;-66
2021/07/02 03:02:13;;;;;;;;;1.00;1.00;;;;;18.08;72.46;99190.69;3496287;41;13981;-65
2021/07/02 03:04:41;;;;;;;;;1.00;1.00;;;;;18.01;73.41;99195.06;3504979;40;13971;-65
2021/07/02 03:07:08;;;;;;;;;1.00;1.00;;;;;17.98;72.98;99193.50;3505110;40;13673;-66
2021/07/02 03:09:36;;;;;;;;;1.00;1.00;;;;;18.04;72.90;99199.34;3511094;40;13458;-65
2021/07/02 03:12:05;;;;;;;;;2.00;1.00;;;;;17.97;73.62;99199.94;3506046;40;13444;-65
2021/07/02 03:14:32;;;;;;;;;1.00;1.00;;;;;17.91;73.99;99197.00;3509810;40;13581;-65
2021/07/02 03:16:59;;;;;;;;;1.75;1.00;;;;;17.77;75.25;99193.75;3512646;40;13334;-66
2021/07/02 03:19:27;;;;;;;;;1.75;1.75;;;;;17.99;73.84;99197.91;3508894;40;13927;-66
2021/07/02 03:21:54;;;;;;;;;1.00;1.00;;;;;17.85;74.45;99194.88;3500164;40;13516;-65
2021/07/02 03:24:22;;;;;;;;;2.00;0.00;;;;;18.06;74.17;99197.28;3507883;40;14113;-66
2021/07/02 03:26:49;;;;;;;;;1.50;1.50;;;;;18.02;74.20;99204.91;3496324;41;13943;-66
2021/07/02 03:29:16;;;;;;;;;1.00;1.00;;;;;18.02;74.48;99202.19;3504754;40;13698;-66
2021/07/02 03:31:44;;;;;;;;;1.00;1.00;;;;;17.72;75.44;99197.91;3496286;41;14631;-66
2021/07/02 03:34:11;;;;;;;;;1.00;1.00;;;;;17.80;75.52;99211.66;3496951;41;13934;-65
2021/07/02 03:36:39;;;;;;;;;2.00;1.00;;;;;17.90;75.07;99209.69;3493989;40;13944;-66
2021/07/02 03:39:06;;;;;;;;;0.00;0.00;;;;;17.84;75.25;99215.75;3504305;40;13914;-65
2021/07/02 03:41:34;;;;;;;;;1.00;1.00;;;;;17.98;74.73;99222.50;3505186;40;13382;-65
2021/07/02 03:44:01;;;;;;;;;1.50;1.50;;;;;17.85;75.73;99216.59;3505583;40;14024;-65
2021/07/02 03:46:28;;;;;;;;;1.00;0.75;;;;;17.82;75.87;99222.34;3505048;41;13933;-66
2021/07/02 03:48:56;;;;;;;;;2.00;2.00;;;;;17.62;76.61;99214.28;3495778;41;15461;-67
2021/07/02 03:51:23;;;;;;;;;1.00;1.00;;;;;17.70;76.41;99219.81;3496936;40;13953;-67
2021/07/02 03:53:51;;;;;;;;;1.75;1.75;;;;;17.76;76.08;99224.63;3497220;40;13975;-66
2021/07/02 03:56:18;;;;;;;;;1.00;1.00;;;;;17.76;76.42;99219.19;3505135;40;13961;-64
2021/07/02 03:58:46;;;;;;;;;1.00;1.00;;;;;18.06;75.15;99214.47;3505104;40;14094;-65
2021/07/02 04:01:13;;;;;;;;;1.00;1.00;;;;;17.75;76.63;99228.34;3505197;40;13682;-65
2021/07/02 04:03:41;;;;;;;;;1.00;1.00;;;;;17.67;77.29;99236.41;3507600;40;13912;-68
2021/07/02 04:06:08;;;;;;;;;2.00;1.00;;;;;17.54;78.35;99230.47;3500698;41;13954;-67
2021/07/02 04:08:36;;;;;;;;;3.25;1.00;;;;;17.92;76.34;99231.28;3499254;40;13901;-67
2021/07/02 04:11:06;;;;;;;;;1.00;1.00;;;;;17.84;76.67;99223.03;3514862;40;14720;-66
2021/07/02 04:13:34;;;;;;;;;3.00;1.75;;;;;17.97;75.95;99220.81;3505586;40;14116;-65
2021/07/02 04:16:03;;;;;;;;;2.00;2.00;;;;;17.98;75.96;99230.66;3490437;41;13993;-66
2021/07/02 04:18:31;;;;;;;;;1.00;1.00;;;;;17.66;77.46;99221.09;3504472;40;13961;-67
2021/07/02 04:20:58;;;;;;;;;1.75;1.00;;;;;17.99;76.04;99229.66;3495611;41;14032;-66
2021/07/02 04:23:26;;;;;;;;;2.00;2.00;;;;;18.11;75.79;99227.56;3508276;40;15395;-65
2021/07/02 04:25:53;;;;;;;;;1.00;1.00;;;;;18.18;75.59;99223.25;3504908;40;13942;-66
2021/07/02 04:28:20;;;;;;;;;2.25;1.00;;;;;18.08;75.81;99227.88;3504440;40;13932;-66
2021/07/02 04:30:48;;;;;;;;;0.75;0.75;;;;;18.10;75.69;99231.31;3505078;41;13941;-66
2021/07/02 04:33:15;;;;;;;;;1.75;1.00;;;;;18.04;76.43;99238.22;3504349;40;13485;-66
2021/07/02 04:35:43;;;;;;;;;1.00;1.00;;;;;18.16;75.46;99241.56;3506532;40;13438;-66
2021/07/02 04:38:10;;;;;;;;;2.00;2.00;;;;;18.13;76.35;99231.84;3496945;41;13995;-66
2021/07/02 04:40:37;;;;;;;;;2.25;1.25;;;;;18.17;75.69;99244.13;3504404;41;13934;-67
2021/07/02 04:43:05;;;;;;;;;1.75;1.75;;;;;18.13;75.69;99231.84;3503257;40;13449;-65
2021/07/02 04:45:32;;;;;;;;;2.75;1.50;;;;;18.14;76.05;99233.56;3507197;40;13681;-66
2021/07/02 04:48:00;;;;;;;;;1.75;1.75;;;;;18.21;75.88;99234.66;3495911;41;14014;-66
2021/07/02 04:50:27;;;;;;;;;1.25;1.25;;;;;18.24;75.15;99238.06;3493698;40;13958;-68
2021/07/02 04:52:55;;;;;;;;;1.50;1.50;;;;;18.42;74.84;99230.78;3499408;40;14132;-65
2021/07/02 04:55:22;;;;;;;;;1.00;1.00;;;;;18.56;74.21;99243.84;3514120;40;14001;-66
2021/07/02 04:57:50;;;;;;;;;1.00;1.00;;;;;18.53;74.56;99244.13;3508129;40;13339;-66
2021/07/02 05:00:18;;;;;;;;;1.25;1.00;;;;;18.47;73.77;99242.03;3502477;40;13420;-63
2021/07/02 05:02:45;;;;;;;;;2.00;2.00;;;;;18.27;75.44;99246.75;3492059;40;13934;-67
2021/07/02 05:05:13;;;;;;;;;1.00;1.00;;;;;18.42;74.26;99247.94;3504879;41;14472;-65
2021/07/02 05:07:41;;;;;;;;;1.50;1.50;;;;;18.58;73.21;99255.38;3504360;41;14134;-65
2021/07/02 05:10:09;;;;;;;;;2.00;2.00;;;;;18.50;74.25;99247.16;3499617;41;13949;-66
2021/07/02 05:12:37;;;;;;;;;2.25;1.00;;;;;18.62;74.15;99248.63;3495470;41;13839;-64
2021/07/02 05:15:05;;;;;;;;;1.00;1.00;;;;;18.74;73.53;99256.53;3494795;41;13344;-67
2021/07/02 05:17:33;;;;;;;;;3.75;2.00;;;;;18.89;73.53;99260.44;3504341;41;13284;-66
2021/07/02 05:20:02;;;;;;;;;1.00;1.00;;;;;18.99;73.09;99263.91;3504708;40;12911;-65
2021/07/02 05:22:29;;;;;;;;;2.50;2.00;;;;;18.88;73.41;99266.03;3504341;40;12926;-66
2021/07/02 05:24:57;;;;;;;;;1.50;1.25;;;;;18.98;72.90;99270.34;3478067;41;13214;-65
2021/07/02 05:27:24;;;;;;;;;2.00;2.00;;;;;19.05;72.83;99271.44;3498367;40;13352;-65
2021/07/02 05:29:52;;;;;;;;;2.00;2.00;;;;;19.19;73.01;99275.44;3512907;40;13482;-65
2021/07/02 05:32:19;;;;;;;;;2.50;2.00;;;;;19.00;73.48;99272.94;3496120;41;13210;-67
2021/07/02 05:35:07;;;;;;;;;2.00;2.00;;;;;18.97;74.58;99281.41;3496797;40;13377;-65
2021/07/02 05:37:41;;;;;;;;;3.00;1.75;;;;;18.76;76.64;99279.03;3486298;41;13071;-66
2021/07/02 05:40:10;;;;;;;;;5.00;3.00;;;;;18.71;78.98;99274.03;3495208;41;13393;-66
2021/07/02 05:42:38;;;;;;;;;2.00;2.00;;;;;18.59;81.07;99287.00;3502082;40;13331;-65
2021/07/02 05:45:07;;;;;;;;;5.00;4.50;;;;;18.53;81.84;99293.06;3501557;40;13926;-65
2021/07/02 05:47:49;;;;;;;;;4.00;4.00;;;;;18.40;82.99;99293.47;3505321;41;14528;-66
2021/07/02 05:50:19;;;;;;;;;5.00;4.50;;;;;18.55;81.75;99279.31;3505321;40;14026;-68
2021/07/02 05:52:47;;;;;;;;;4.00;4.00;;;;;18.90;81.16;99285.78;3501715;40;14142;-66
2021/07/02 05:55:14;;;;;;;;;2.00;2.00;;;;;18.96;81.07;99272.41;3514637;40;13930;-66
2021/07/02 05:57:42;;;;;;;;;3.00;3.00;;;;;18.86;79.79;99272.50;3506361;40;13228;-65
2021/07/02 06:00:11;;;;;;;;;2.00;2.00;;;;;18.50;81.30;99271.63;3496065;41;13348;-65
2021/07/02 06:02:38;;;;;;;;;3.75;3.00;;;;;18.89;79.10;99276.75;3506801;40;13064;-65
2021/07/02 06:05:07;;;;;;;;;2.00;2.00;;;;;18.81;80.01;99285.72;3496260;41;13239;-65
2021/07/02 06:07:49;;;;;;;;;4.00;4.00;;;;;19.00;78.29;99289.25;3506604;40;13042;-66
2021/07/02 06:10:19;;;;;;;;;5.25;5.25;;;;;18.70;78.88;99293.22;3507617;40;13937;-66
2021/07/02 06:12:48;;;;;;;;;4.75;3.50;;;;;18.84;77.97;99296.25;3495724;40;13940;-67
2021/07/02 06:15:18;;;;;;;;;5.75;3.75;;;;;19.05;77.92;99300.53;3496696;40;14163;-65
2021/07/02 06:17:47;;;;;;;;;2.00;2.00;;;;;18.90;78.69;99311.09;3505502;40;13963;-67
2021/07/02 06:20:17;;;;;;;;;4.50;3.00;;;;;18.50;79.69;99309.69;3505124;41;13897;-66
2021/07/02 06:22:45;;;;;;;;;2.00;1.00;;;;;18.80;77.86;99315.78;3495919;40;14143;-65
2021/07/02 06:25:13;;;;;;;;;3.00;3.00;;;;;18.82;78.98;99316.47;3491577;41;13473;-66
2021/07/02 06:27:41;;;;;;;;;3.00;3.00;;;;;18.62;78.47;99319.34;3502440;40;13358;-66
2021/07/02 06:30:15;;;;;;;;;6.25;3.00;;;;;18.89;77.42;99319.44;3514122;40;13383;-67
2021/07/02 06:32:43;;;;;;;;;4.00;4.00;;;;;18.71;78.80;99313.97;3504976;40;14343;-67
2021/07/02 06:35:11;;;;;;;;;3.50;3.00;;;;;18.81;77.74;99323.78;3499400;40;13924;-67
2021/07/02 06:37:38;;;;;;;;;3.25;3.25;;;;;18.60;79.31;99320.50;3496163;41;13706;-65
2021/07/02 06:40:08;;;;;;;;;3.00;3.00;;;;;18.84;77.85;99320.75;3505140;41;13351;-64
2021/07/02 06:42:35;;;;;;;;;2.50;2.50;;;;;18.79;77.74;99319.50;3505031;40;14144;-67
2021/07/02 06:45:04;;;;;;;;;3.00;3.00;;;;;18.76;78.80;99314.38;3514696;40;13219;-67
2021/07/02 06:47:32;;;;;;;;;3.00;3.00;;;;;18.87;76.79;99327.75;3510214;40;14125;-65
2021/07/02 06:49:59;;;;;;;;;5.00;3.00;;;;;18.82;77.44;99321.91;3510291;40;13402;-64
2021/07/02 06:52:26;;;;;;;;;4.75;3.50;;;;;18.79;78.08;99330.41;3505364;40;13231;-65
2021/07/02 06:54:53;;;;;;;;;3.00;3.00;;;;;18.85;77.49;99329.75;3506910;40;13450;-65
2021/07/02 06:57:21;;;;;;;;;4.00;4.00;;;;;18.68;78.20;99345.03;3504066;40;13368;-64
2021/07/02 06:59:48;;;;;;;;;5.50;4.25;;;;;18.42;78.18;99345.78;3504610;41;13868;-67
2021/07/02 07:02:15;;;;;;;;;3.25;3.25;;;;;18.83;76.25;99343.53;3503486;40;13959;-67
2021/07/02 07:04:43;;;;;;;;;3.50;3.50;;;;;18.69;76.98;99351.34;3506180;40;13998;-66
2021/07/02 07:07:10;;;;;;;;;7.75;4.75;;;;;18.84;76.67;99345.22;3512349;40;14168;-68
2021/07/02 07:09:38;;;;;;;;;3.25;3.25;;;;;18.70;76.16;99342.19;3512655;40;13928;-63
2021/07/02 07:12:06;;;;;;;;;4.50;3.75;;;;;18.88;75.57;99336.75;3504262;40;14138;-66
2021/07/02 07:14:33;;;;;;;;;5.00;5.00;;;;;18.72;77.03;99346.47;3505801;40;14365;-66
2021/07/02 07:17:03;;;;;;;;;5.00;4.00;;;;;18.83;76.27;99353.56;3504773;40;13957;-68
2021/07/02 07:19:31;;;;;;;;;6.75;5.00;;;;;19.21;75.35;99355.06;3502534;40;13363;-66
2021/07/02 07:21:59;;;;;;;;;4.00;4.00;;;;;19.06;75.48;99362.09;3502761;40;13992;-66
2021/07/02 07:24:26;;;;;;;;;5.00;3.00;;;;;19.18;74.94;99358.13;3503775;40;13436;-66
2021/07/02 07:26:58;;;;;;;;;4.00;4.00;;;;;19.20;73.85;99349.81;3495286;41;14507;-66
2021/07/02 07:29:26;;;;;;;;;4.00;3.25;;;;;19.33;72.68;99352.97;3504306;40;13213;-68
2021/07/02 07:31:55;;;;;;;;;3.75;3.50;;;;;19.37;74.54;99361.66;3504334;40;12992;-66
2021/07/02 07:37:12;;;;;;;;;4.00;3.00;;;;;19.59;72.04;99354.81;3495374;41;12805;-66
2021/07/02 07:39:40;;;;;;;;;6.50;4.00;;;;;19.32;73.31;99351.25;3495429;41;13049;-65
2021/07/02 07:42:07;;;;;;;;;3.75;3.75;;;;;19.44;73.29;99365.47;3486735;41;13042;-67
2021/07/02 07:44:35;;;;;;;;;6.00;4.50;;;;;19.77;72.43;99354.81;3505664;40;13222;-66
2021/07/02 07:47:02;;;;;;;;;3.00;3.00;;;;;19.82;71.78;99361.47;3504699;41;13106;-65
2021/07/02 07:49:30;;;;;;;;;4.50;4.50;;;;;19.75;72.63;99365.88;3495131;41;12933;-68
2021/07/02 07:52:19;;;;;;;;;5.00;5.00;;;;;19.80;71.90;99373.53;3494053;41;12836;-68
2021/07/02 07:54:46;;;;;;;;;6.00;5.00;;;;;19.91;71.86;99371.41;3501805;40;12807;-67
2021/07/02 07:57:13;;;;;;;;;4.50;4.50;;;;;19.83;72.06;99374.09;3503612;40;12676;-66
2021/07/02 07:59:41;;;;;;;;;5.25;4.75;;;;;19.85;72.25;99382.09;3504226;40;12808;-65
2021/07/02 08:02:08;;;;;;;;;4.75;4.00;;;;;19.71;71.40;99381.66;3504528;40;12844;-64
2021/07/02 08:04:37;;;;;;;;;5.00;4.00;;;;;19.98;71.44;99382.50;3504283;41;12705;-64
2021/07/02 08:07:04;;;;;;;;;5.00;5.00;;;;;20.08;70.57;99382.38;3497263;40;12844;-67
2021/07/02 08:09:32;;;;;;;;;5.00;5.00;;;;;20.22;71.54;99389.97;3505448;40;12848;-66
2021/07/02 08:12:00;;;;;;;;;5.00;5.00;;;;;20.16;71.37;99387.88;3499969;41;12538;-66
2021/07/02 08:14:27;;;;;;;;;7.00;5.00;;;;;20.26;70.34;99385.03;3504467;40;12855;-65
2021/07/02 08:16:54;;;;;;;;;6.00;6.00;;;;;20.17;72.01;99381.44;3504747;41;12953;-64
2021/07/02 08:19:22;;;;;;;;;4.75;4.75;;;;;20.30;70.23;99381.81;3494845;41;12808;-66
2021/07/02 08:21:49;;;;;;;;;13.00;11.00;;;;;20.43;70.07;99380.47;3504196;40;12612;-67
2021/07/02 08:24:17;;;;;;;;;5.00;5.00;;;;;20.44;70.58;99387.66;3509931;40;13108;-66
2021/07/02 08:26:44;;;;;;;;;5.00;4.50;;;;;20.34;69.47;99385.91;3498382;41;12790;-64
2021/07/02 08:29:27;;;;;;;;;5.50;5.00;;;;;20.47;68.70;99388.16;3504542;40;12260;-67
2021/07/02 08:31:56;;;;;;;;;5.50;5.50;;;;;20.51;69.22;99388.69;3513906;40;12780;-67
2021/07/02 08:34:24;;;;;;;;;5.25;4.00;;;;;20.54;68.86;99393.88;3503406;40;13237;-66
2021/07/02 08:36:53;;;;;;;;;6.00;5.25;;;;;20.70;67.98;99388.44;3494903;41;12992;-68
2021/07/02 08:39:20;;;;;;;;;6.00;5.00;;;;;20.55;68.52;99401.03;3504270;41;12328;-67
2021/07/02 08:41:48;;;;;;;;;7.25;5.00;;;;;20.63;67.95;99387.41;3495130;41;12628;-69
2021/07/02 08:44:17;;;;;;;;;7.00;6.00;;;;;20.57;67.69;99398.97;3495025;41;12805;-66
2021/07/02 08:46:49;;;;;;;;;5.00;5.00;;;;;20.42;68.30;99392.41;3493715;41;12712;-65
2021/07/02 08:49:32;;;;;;;;;5.25;5.25;;;;;20.76;67.07;99390.50;3506715;40;12525;-66
2021/07/02 08:52:00;;;;;;;;;4.00;4.00;;;;;20.93;67.40;99395.97;3503284;40;12252;-66
2021/07/02 08:54:27;;;;;;;;;4.75;4.00;;;;;20.73;66.91;99388.09;3508173;40;12258;-65
2021/07/02 08:56:58;;;;;;;;;6.25;5.00;;;;;21.24;66.42;99388.84;3513849;40;12427;-66
2021/07/02 08:59:28;;;;;;;;;8.00;7.25;;;;;21.35;65.34;99387.66;3494399;41;12655;-66
2021/07/02 09:01:57;;;;;;;;;7.00;6.00;;;;;21.40;65.84;99385.28;3504155;41;12163;-66
2021/07/02 09:04:27;;;;;;;;;5.75;5.00;;;;;21.37;65.00;99390.22;3494664;41;11893;-66
2021/07/02 09:07:12;;;;;;;;;7.00;6.00;;;;;21.32;64.45;99390.72;3503677;40;12304;-68
2021/07/02 09:09:52;;;;;;;;;10.50;8.75;;;;;21.26;65.24;99386.81;3504276;40;11789;-66
2021/07/02 09:12:32;;;;;;;;;7.00;5.25;;;;;21.29;65.32;99385.59;3510308;40;11976;-66
2021/07/02 09:15:13;;;;;;;;;8.00;7.00;;;;;21.22;66.18;99388.19;3502114;40;11595;-66
2021/07/02 09:17:50;;;;;;;;;6.00;6.00;;;;;21.48;64.21;99381.69;3494698;40;12030;-64
2021/07/02 09:20:24;;;;;;;;;8.00;6.00;;;;;21.78;64.75;99382.88;3503285;40;12140;-68
2021/07/02 09:22:56;;;;;;;;;6.00;6.00;;;;;21.13;64.46;99389.19;3495456;40;11889;-68
2021/07/02 09:25:33;;;;;;;;;10.00;6.00;;;;;21.22;64.51;99388.19;3488542;41;12029;-66
2021/07/02 09:28:17;;;;;;;;;8.75;6.75;;;;;21.57;63.68;99385.31;3504318;40;11848;-67
2021/07/02 09:30:52;;;;;;;;;7.00;7.00;;;;;21.62;62.82;99383.75;3506599;40;11733;-65
2021/07/02 09:33:22;;;;;;;;;7.75;7.75;;;;;21.59;63.75;99391.41;3494062;41;12741;-66
2021/07/02 09:36:01;;;;;;;;;8.75;8.75;;;;;21.46;63.26;99378.31;3495056;41;11880;-67
2021/07/02 09:38:34;;;;;;;;;10.50;8.75;;;;;21.62;63.41;99377.44;3495024;41;11924;-67
2021/07/02 09:41:03;;;;;;;;;8.75;7.50;;;;;21.60;64.24;99379.47;3502253;41;11866;-67
2021/07/02 09:43:30;;;;;;;;;7.00;7.00;;;;;21.71;62.54;99376.38;3487065;41;12951;-66
2021/07/02 09:46:04;;;;;;;;;9.00;6.75;;;;;21.94;61.43;99376.50;3494736;41;12046;-67
2021/07/02 09:48:41;;;;;;;;;6.50;6.50;;;;;22.04;60.91;99368.97;3494903;41;11646;-64
2021/07/02 09:51:10;;;;;;;;;4.25;4.25;;;;;22.69;60.81;99366.97;3495711;41;11465;-66
2021/07/02 09:53:40;;;;;;;;;6.00;6.00;;;;;22.49;59.87;99378.38;3503962;40;11467;-69
2021/07/02 09:56:18;;;;;;;;;6.75;5.75;;;;;22.67;59.09;99369.91;3508411;40;11461;-68
2021/07/02 09:58:46;;;;;;;;;6.50;6.00;;;;;22.20;60.65;99369.97;3495304;41;11103;-70
2021/07/02 10:01:25;;;;;;;;;4.50;4.50;;;;;22.16;59.46;99374.03;3494338;41;10910;-66
2021/07/02 10:03:53;;;;;;;;;5.00;5.00;;;;;22.42;59.96;99363.69;3503458;41;10914;-64
2021/07/02 10:06:25;;;;;;;;;7.00;7.00;;;;;21.76;61.89;99364.94;3495085;41;10790;-67
2021/07/02 10:08:54;;;;;;;;;8.75;7.00;;;;;22.26;60.34;99359.16;3494513;41;11070;-66
2021/07/02 10:11:23;;;;;;;;;6.50;6.00;;;;;22.42;59.38;99362.84;3494747;41;11151;-69
2021/07/02 10:13:51;;;;;;;;;6.00;6.00;;;;;22.44;59.28;99364.38;3503557;41;11042;-67
2021/07/02 10:16:19;;;;;;;;;6.25;5.25;;;;;22.81;57.69;99367.41;3494185;41;11180;-68
2021/07/02 10:18:50;;;;;;;;;5.75;5.75;;;;;22.74;57.65;99362.66;3503476;41;11617;-65
2021/07/02 10:21:23;;;;;;;;;6.00;6.00;;;;;22.99;59.07;99365.25;3494371;41;10920;-67
2021/07/02 10:23:56;;;;;;;;;5.00;5.00;;;;;23.59;56.66;99361.66;3494288;41;10647;-67
2021/07/02 10:26:26;;;;;;;;;6.00;6.00;;;;;24.13;55.71;99363.31;3495019;41;10942;-67
2021/07/02 10:28:55;;;;;;;;;6.67;6.33;;;;;23.88;55.02;99355.41;3494032;41;10339;-67
2021/07/02 10:31:23;;;;;;;;;8.33;6.33;;;;;24.14;54.47;99351.31;3494368;41;10369;-67
2021/07/02 10:33:55;;;;;;;;;5.00;5.00;;;;;23.98;55.54;99357.00;3495635;41;11191;-65
2021/07/02 10:36:23;;;;;;;;;5.00;5.00;;;;;23.32;57.12;99349.41;3496044;41;9978;-66
2021/07/02 10:38:52;;;;;;;;;10.00;6.67;;;;;24.42;55.12;99345.97;3495355;41;10307;-66
2021/07/02 10:41:23;;;;;;;;;6.33;6.33;;;;;24.29;53.39;99340.31;3496370;41;10233;-62
2021/07/02 10:44:13;;;;;;;;;6.33;6.33;;;;;24.31;54.20;99333.59;3504565;41;9961;-65
2021/07/02 10:47:01;;;;;;;;;7.33;7.00;;;;;24.28;54.43;99333.16;3497527;40;9974;-67
2021/07/02 10:49:37;;;;;;;;;7.33;7.33;;;;;24.25;54.58;99328.88;3505824;40;10805;-65
2021/07/02 10:52:27;;;;;;;;;6.67;6.00;;;;;24.53;54.03;99328.19;3506116;40;10313;-67
2021/07/02 10:54:58;;;;;;;;;9.00;6.00;;;;;25.35;50.97;99321.41;3505311;40;9960;-65
2021/07/02 10:57:27;;;;;;;;;5.33;5.33;;;;;24.77;52.70;99332.47;3514935;40;9751;-65
2021/07/02 10:59:55;;;;;;;;;7.00;7.00;;;;;23.69;55.37;99320.25;3501032;40;10109;-63
2021/07/02 11:02:26;;;;;;;;;8.00;7.67;;;;;23.57;56.49;99319.03;3506979;40;9813;-65
2021/07/02 11:05:00;;;;;;;;;7.00;6.67;;;;;23.51;56.32;99319.75;3496169;41;9823;-63
2021/07/02 11:07:28;;;;;;;;;7.00;7.00;;;;;23.53;55.43;99313.06;3495886;41;10117;-63
2021/07/02 11:09:58;;;;;;;;;7.00;7.00;;;;;23.88;54.53;99313.38;3504569;41;10107;-66
2021/07/02 11:12:45;;;;;;;;;8.25;7.25;;;;;23.78;55.19;99310.94;3495727;41;10261;-65
2021/07/02 11:15:20;;;;;;;;;6.33;6.33;;;;;23.53;55.52;99306.72;3505213;41;10514;-66
2021/07/02 11:18:11;;;;;;;;;6.00;6.00;;;;;23.22;55.90;99307.72;3504908;41;10410;-64
2021/07/02 11:20:38;;;;;;;;;6.75;6.75;;;;;23.11;55.75;99305.44;3488199;41;11775;-65
2021/07/02 11:23:16;;;;;;;;;8.00;7.50;;;;;22.26;66.28;99314.53;3495252;41;10751;-68
2021/07/02 11:26:02;;;;;;;;;11.75;9.00;;;;;21.50;70.24;99302.31;3495739;41;11069;-67
2021/07/02 11:28:47;;;;;;;;;11.00;9.75;;;;;21.25;73.17;99305.06;3488969;41;12200;-66
2021/07/02 11:31:17;;;;;;;;;10.50;9.00;;;;;20.85;75.94;99301.31;3495417;41;11893;-67
2021/07/02 11:33:46;;;;;;;;;10.00;9.75;;;;;20.73;80.60;99298.06;3495522;41;11932;-67
2021/07/02 11:36:16;;;;;;;;;13.25;12.00;;;;;21.23;78.86;99286.13;3495592;41;12819;-65
2021/07/02 11:38:54;;;;;;;;;9.75;9.00;;;;;21.84;69.32;99280.19;3494946;41;12276;-67
2021/07/02 11:41:30;;;;;;;;;9.50;9.50;;;;;21.67;73.22;99280.25;3495830;41;12772;-67
2021/07/02 11:44:01;;;;;;;;;9.75;9.75;;;;;21.81;75.33;99277.81;3494973;41;12679;-67
2021/07/02 11:46:29;;;;;;;;;11.00;9.75;;;;;22.44;71.95;99273.25;3495102;41;11526;-66
2021/07/02 11:48:57;;;;;;;;;7.00;7.00;;;;;22.64;68.93;99270.88;3495715;41;11685;-66